createdAt,value
2018-01-06T00:02:04.882Z,5.50
2018-01-06T00:04:33.127Z,14.30
2018-01-06T00:07:01.390Z,5.67
2018-01-06T00:09:30.398Z,4.67
2018-01-06T00:11:59.414Z,4.80
2018-01-06T00:14:27.658Z,4.70
2018-01-06T00:16:55.966Z,4.50
2018-01-06T00:19:24.255Z,5.43
2018-01-06T00:21:52.525Z,3.93
2018-01-06T00:24:20.769Z,4.40
2018-01-06T00:26:49.040Z,4.77
2018-01-06T00:29:18.779Z,4.70
2018-01-06T00:31:47.811Z,4.47
2018-01-06T00:34:16.050Z,4.50
2018-01-06T00:36:45.123Z,5.00
2018-01-06T00:39:13.322Z,4.70
2018-01-06T00:41:41.578Z,4.93
2018-01-06T00:44:09.822Z,5.70
2018-01-06T00:46:38.086Z,5.00
2018-01-06T00:49:06.323Z,4.77
2018-01-06T00:51:34.581Z,5.47
2018-01-06T00:54:03.310Z,4.90
2018-01-06T00:56:31.566Z,4.90
2018-01-06T00:58:59.834Z,5.80
2018-01-06T01:01:28.168Z,5.80
2018-01-06T01:03:56.544Z,5.47
2018-01-06T01:06:24.780Z,6.00
2018-01-06T01:08:53.018Z,6.00
2018-01-06T01:11:22.027Z,4.83
2018-01-06T01:13:50.342Z,6.00
2018-01-06T01:16:18.573Z,5.60
2018-01-06T01:18:47.599Z,6.33
2018-01-06T01:21:15.854Z,5.50
2018-01-06T01:23:44.870Z,6.70
2018-01-06T01:26:13.874Z,6.37
2018-01-06T01:28:42.139Z,6.80
2018-01-06T01:31:11.146Z,7.43
2018-01-06T01:33:39.417Z,6.13
2018-01-06T01:36:08.469Z,7.77
2018-01-06T01:38:36.732Z,6.60
2018-01-06T01:41:04.970Z,7.23
2018-01-06T01:43:34.003Z,6.07
2018-01-06T01:46:02.252Z,7.03
2018-01-06T01:48:31.276Z,6.90
2018-01-06T01:50:59.519Z,7.47
2018-01-06T01:53:28.547Z,6.57
2018-01-06T01:55:56.778Z,6.47
2018-01-06T01:58:25.053Z,8.07
2018-01-06T02:00:53.294Z,7.73
2018-01-06T02:03:21.561Z,6.60
2018-01-06T02:05:49.810Z,6.67
2018-01-06T02:08:18.085Z,5.93
2018-01-06T02:10:46.431Z,6.20
2018-01-06T02:13:14.706Z,6.00
2018-01-06T02:15:42.991Z,6.27
2018-01-06T02:18:11.260Z,6.60
2018-01-06T02:20:39.491Z,6.10
2018-01-06T02:23:07.725Z,6.53
2018-01-06T02:25:35.978Z,6.83
2018-01-06T02:28:04.994Z,5.63
2018-01-06T02:30:33.244Z,6.60
2018-01-06T02:33:02.292Z,6.03
2018-01-06T02:35:30.549Z,6.13
2018-01-06T02:37:58.780Z,5.97
2018-01-06T02:40:27.034Z,6.27
2018-01-06T02:42:55.285Z,5.43
2018-01-06T02:45:23.611Z,5.77
2018-01-06T02:47:51.886Z,5.77
2018-01-06T02:50:20.974Z,5.10
2018-01-06T02:52:49.252Z,5.47
2018-01-06T02:55:17.517Z,5.57
2018-01-06T02:57:45.754Z,5.77
2018-01-06T03:00:15.514Z,4.40
2018-01-06T03:02:43.758Z,4.97
2018-01-06T03:05:12.806Z,5.03
2018-01-06T03:07:41.056Z,5.67
2018-01-06T03:10:10.079Z,5.07
2018-01-06T03:12:38.338Z,5.13
2018-01-06T03:15:06.646Z,4.80
2018-01-06T03:17:34.903Z,5.20
2018-01-06T03:20:04.239Z,5.30
2018-01-06T03:22:32.522Z,5.60
2018-01-06T03:25:00.803Z,5.47
2018-01-06T03:27:29.036Z,6.50
2018-01-06T03:29:58.069Z,7.00
2018-01-06T03:32:26.316Z,5.83
2018-01-06T03:34:55.345Z,6.20
2018-01-06T03:37:23.600Z,6.00
2018-01-06T03:39:52.664Z,6.07
2018-01-06T03:42:21.058Z,5.17
2018-01-06T03:44:49.313Z,5.80
2018-01-06T03:47:17.563Z,4.83
2018-01-06T03:49:45.804Z,5.47
2018-01-06T03:52:14.827Z,5.23
2018-01-06T03:54:43.078Z,5.80
2018-01-06T03:57:11.321Z,5.70
2018-01-06T03:59:39.594Z,4.80
2018-01-06T04:02:07.858Z,5.87
2018-01-06T04:04:36.112Z,6.93
2018-01-06T04:07:05.154Z,7.30
2018-01-06T04:09:33.397Z,8.20
2018-01-06T04:12:02.423Z,5.70
2018-01-06T04:14:30.720Z,6.57
2018-01-06T04:16:58.974Z,6.50
2018-01-06T04:19:27.210Z,6.57
2018-01-06T04:21:55.477Z,6.40
2018-01-06T04:24:25.659Z,6.70
2018-01-06T04:26:53.934Z,7.33
2018-01-06T04:29:22.170Z,7.07
2018-01-06T04:31:50.429Z,6.37
2018-01-06T04:34:18.676Z,6.87
2018-01-06T04:36:46.994Z,6.53
2018-01-06T04:39:15.357Z,6.47
2018-01-06T04:41:43.601Z,6.23
2018-01-06T04:44:12.630Z,6.80
2018-01-06T04:46:40.873Z,7.37
2018-01-06T04:49:09.920Z,7.50
2018-01-06T04:51:38.158Z,7.17
2018-01-06T04:54:07.188Z,7.90
2018-01-06T04:56:35.467Z,8.70
2018-01-06T04:59:03.730Z,7.37
2018-01-06T05:01:31.978Z,7.63
2018-01-06T05:04:00.248Z,8.30
2018-01-06T05:06:28.482Z,8.07
2018-01-06T05:08:56.750Z,9.17
2018-01-06T05:11:24.990Z,9.30
2018-01-06T05:13:54.755Z,8.37
2018-01-06T05:16:22.995Z,8.73
2018-01-06T05:18:52.901Z,9.33
2018-01-06T05:21:21.169Z,9.47
2018-01-06T05:23:49.991Z,8.87
2018-01-06T05:26:18.244Z,8.70
2018-01-06T05:28:46.513Z,9.57
2018-01-06T05:31:14.763Z,9.47
2018-01-06T05:33:43.922Z,9.60
2018-01-06T05:36:12.150Z,9.87
2018-01-06T05:38:40.415Z,10.00
2018-01-06T05:41:09.446Z,10.57
2018-01-06T05:43:37.710Z,11.07
2018-01-06T05:46:05.957Z,9.80
2018-01-06T05:48:34.213Z,9.90
2018-01-06T05:51:02.579Z,9.40
2018-01-06T05:53:30.834Z,9.87
2018-01-06T05:55:59.093Z,11.03
2018-01-06T05:58:28.118Z,10.20
2018-01-06T06:00:56.393Z,11.30
2018-01-06T06:03:24.661Z,11.00
2018-01-06T06:05:53.690Z,10.90
2018-01-06T06:08:21.951Z,11.43
2018-01-06T06:10:50.231Z,11.43
2018-01-06T06:13:18.501Z,10.97
2018-01-06T06:15:46.789Z,10.93
2018-01-06T06:18:15.098Z,11.00
2018-01-06T06:20:43.366Z,11.60
2018-01-06T06:23:11.653Z,12.00
2018-01-06T06:25:39.929Z,10.60
2018-01-06T06:28:08.190Z,10.93
2018-01-06T06:30:37.206Z,11.27
2018-01-06T06:33:11.297Z,12.70
2018-01-06T06:35:42.443Z,12.30
2018-01-06T06:38:11.454Z,11.53
2018-01-06T06:40:39.870Z,11.30
2018-01-06T06:43:08.126Z,10.43
2018-01-06T06:45:36.390Z,11.93
2018-01-06T06:48:04.647Z,12.00
2018-01-06T06:50:33.712Z,11.80
2018-01-06T06:53:01.962Z,11.23
2018-01-06T06:55:30.232Z,12.37
2018-01-06T06:57:58.500Z,12.30
2018-01-06T07:00:27.548Z,11.37
2018-01-06T07:02:55.791Z,11.37
2018-01-06T07:05:24.087Z,12.70
2018-01-06T07:07:52.322Z,12.90
2018-01-06T07:10:20.580Z,12.53
2018-01-06T07:12:48.847Z,11.70
2018-01-06T07:15:17.102Z,12.00
2018-01-06T07:17:45.407Z,13.07
2018-01-06T07:20:13.663Z,12.30
2018-01-06T07:22:41.926Z,14.20
2018-01-06T07:25:10.947Z,13.50
2018-01-06T07:27:39.213Z,15.00
2018-01-06T07:30:07.474Z,14.60
2018-01-06T07:32:37.518Z,15.60
2018-01-06T07:35:05.770Z,16.10
2018-01-06T07:37:35.563Z,14.63
2018-01-06T07:40:03.814Z,15.37
2018-01-06T07:42:32.084Z,14.53
2018-01-06T07:45:00.340Z,15.70
2018-01-06T07:47:29.375Z,15.80
2018-01-06T07:49:57.617Z,15.50
2018-01-06T07:52:25.884Z,15.80
2018-01-06T07:54:54.133Z,14.17
2018-01-06T07:57:22.419Z,15.80
2018-01-06T07:59:50.694Z,15.27
2018-01-06T08:02:18.966Z,13.90
2018-01-06T08:04:47.220Z,15.63
2018-01-06T08:07:15.496Z,15.67
2018-01-06T08:09:44.517Z,15.80
2018-01-06T08:12:12.834Z,15.20
2018-01-06T08:14:41.112Z,15.43
2018-01-06T08:17:09.361Z,14.60
2018-01-06T08:19:38.219Z,15.37
2018-01-06T08:22:06.466Z,15.20
2018-01-06T08:24:34.830Z,15.30
2018-01-06T08:27:03.072Z,13.20
2018-01-06T08:29:32.202Z,13.77
2018-01-06T08:32:00.454Z,15.10
2018-01-06T08:34:28.731Z,16.30
2018-01-06T08:36:57.747Z,16.23
2018-01-06T08:39:26.011Z,15.23
2018-01-06T08:41:55.029Z,15.10
2018-01-06T08:44:23.295Z,15.90
2018-01-06T08:46:51.542Z,15.27
2018-01-06T08:49:20.105Z,15.60
2018-01-06T08:51:48.334Z,16.13
2018-01-06T08:54:17.367Z,16.70
2018-01-06T08:56:45.617Z,16.57
2018-01-06T08:59:14.927Z,14.93
2018-01-06T09:01:43.953Z,16.10
2018-01-06T09:04:12.373Z,15.80
2018-01-06T09:06:40.635Z,15.40
2018-01-06T09:09:08.901Z,14.93
2018-01-06T09:11:37.149Z,15.90
2018-01-06T09:14:06.373Z,14.17
2018-01-06T09:16:34.648Z,14.70
2018-01-06T09:19:02.917Z,15.00
2018-01-06T09:21:31.178Z,15.20
2018-01-06T09:24:00.219Z,15.30
2018-01-06T09:26:28.519Z,16.10
2018-01-06T09:28:56.784Z,15.13
2018-01-06T09:31:25.073Z,15.67
2018-01-06T09:33:53.364Z,14.90
2018-01-06T09:36:21.648Z,17.30
2018-01-06T09:38:49.895Z,16.13
2018-01-06T09:41:18.170Z,13.80
2018-01-06T09:43:46.427Z,15.37
2018-01-06T09:46:15.457Z,15.80
2018-01-06T09:48:43.716Z,14.63
2018-01-06T09:51:12.787Z,14.90
2018-01-06T09:53:41.125Z,16.30
2018-01-06T09:56:09.522Z,17.17
2018-01-06T09:58:37.818Z,17.50
2018-01-06T10:01:06.089Z,15.77
2018-01-06T10:03:34.346Z,16.20
2018-01-06T10:06:02.622Z,17.80
2018-01-06T10:08:30.892Z,16.67
2018-01-06T10:11:00.028Z,18.13
2018-01-06T10:13:28.277Z,16.50
2018-01-06T10:15:56.555Z,16.70
2018-01-06T10:18:24.870Z,16.17
2018-01-06T10:20:53.151Z,16.40
2018-01-06T10:23:21.420Z,15.67
2018-01-06T10:25:49.700Z,17.20
2018-01-06T10:28:17.973Z,15.47
2018-01-06T10:30:46.239Z,16.57
2018-01-06T10:33:14.531Z,17.27
2018-01-06T10:35:43.115Z,14.80
2018-01-06T10:38:11.378Z,15.27
2018-01-06T10:40:40.411Z,13.70
2018-01-06T10:43:10.883Z,13.23
2018-01-06T10:45:39.172Z,16.60
2018-01-06T10:48:07.665Z,15.83
2018-01-06T10:50:35.999Z,14.13
2018-01-06T10:53:04.322Z,14.70
2018-01-06T10:55:32.655Z,16.93
2018-01-06T10:58:00.934Z,17.30
2018-01-06T11:00:34.946Z,16.53
2018-01-06T11:03:03.218Z,16.10
2018-01-06T11:05:31.475Z,16.63
2018-01-06T11:08:00.626Z,17.00
2018-01-06T11:10:28.873Z,17.50
2018-01-06T11:12:57.155Z,16.60
2018-01-06T11:15:25.478Z,17.17
2018-01-06T11:17:54.307Z,17.77
2018-01-06T11:20:23.328Z,15.87
2018-01-06T11:22:51.686Z,16.73
2018-01-06T11:25:19.952Z,16.60
2018-01-06T11:27:48.228Z,16.57
2018-01-06T11:30:16.590Z,17.27
2018-01-06T11:32:45.460Z,15.70
2018-01-06T11:35:13.713Z,18.50
2018-01-06T11:37:42.755Z,16.50
2018-01-06T11:40:11.018Z,17.23
2018-01-06T11:42:39.274Z,17.10
2018-01-06T11:45:08.315Z,16.93
2018-01-06T11:47:36.578Z,17.50
2018-01-06T11:50:04.862Z,17.37
2018-01-06T11:52:33.107Z,17.10
2018-01-06T11:55:02.157Z,18.20
2018-01-06T11:57:46.086Z,16.43
2018-01-06T12:00:17.237Z,16.90
2018-01-06T12:02:45.507Z,17.27
2018-01-06T12:05:13.790Z,17.10
2018-01-06T12:07:42.050Z,18.03
2018-01-06T12:10:11.193Z,19.23
2018-01-06T12:12:39.464Z,17.73
2018-01-06T12:15:07.796Z,19.37
2018-01-06T12:17:36.046Z,19.27
2018-01-06T12:20:04.329Z,18.47
2018-01-06T12:22:33.473Z,17.70
2018-01-06T12:25:02.519Z,19.20
2018-01-06T12:27:30.781Z,18.27
2018-01-06T12:29:59.056Z,17.70
2018-01-06T12:32:27.323Z,18.83
2018-01-06T12:34:56.400Z,17.53
2018-01-06T12:37:24.630Z,16.27
2018-01-06T12:39:52.890Z,15.63
2018-01-06T12:42:21.201Z,17.93
2018-01-06T12:44:49.467Z,16.97
2018-01-06T12:47:17.722Z,17.53
2018-01-06T12:49:46.863Z,17.57
2018-01-06T12:52:15.134Z,16.57
2018-01-06T12:54:43.415Z,15.70
2018-01-06T12:57:11.682Z,13.80
2018-01-06T12:59:39.943Z,14.90
2018-01-06T13:02:08.989Z,14.27
2018-01-06T13:04:37.268Z,15.30
2018-01-06T13:07:05.554Z,16.50
2018-01-06T13:09:33.832Z,16.87
2018-01-06T13:12:02.111Z,16.90
2018-01-06T13:14:30.368Z,18.30
2018-01-06T13:16:58.667Z,14.47
2018-01-06T13:19:26.920Z,14.97
2018-01-06T13:21:55.190Z,12.13
2018-01-06T13:24:23.445Z,11.40
2018-01-06T13:26:52.507Z,11.47
2018-01-06T13:29:20.773Z,10.97
2018-01-06T13:31:49.052Z,13.60
2018-01-06T13:34:17.310Z,14.13
2018-01-06T13:36:46.357Z,15.97
2018-01-06T13:39:14.646Z,16.13
2018-01-06T13:41:42.926Z,15.83
2018-01-06T13:44:11.197Z,16.20
2018-01-06T13:46:39.484Z,15.30
2018-01-06T13:49:07.770Z,16.10
2018-01-06T13:51:36.089Z,15.93
2018-01-06T13:54:05.834Z,16.23
2018-01-06T13:56:34.123Z,15.93
2018-01-06T13:59:02.381Z,13.87
2018-01-06T14:01:30.687Z,15.30
2018-01-06T14:03:58.946Z,14.80
2018-01-06T14:06:27.236Z,14.40
2018-01-06T14:08:56.252Z,14.43
2018-01-06T14:11:24.515Z,13.83
2018-01-06T14:13:52.807Z,13.00
2018-01-06T14:16:21.053Z,12.67
2018-01-06T14:18:50.661Z,12.80
2018-01-06T14:21:19.681Z,12.00
2018-01-06T14:23:47.959Z,12.43
2018-01-06T14:26:16.456Z,13.23
2018-01-06T14:28:44.941Z,13.27
2018-01-06T14:31:13.279Z,12.50
2018-01-06T14:33:41.865Z,12.53
2018-01-06T14:36:11.640Z,12.37
2018-01-06T14:38:41.908Z,13.37
2018-01-06T14:41:11.531Z,13.40
2018-01-06T14:43:40.771Z,11.43
2018-01-06T14:46:09.296Z,11.13
2018-01-06T14:48:37.816Z,12.10
2018-01-06T14:51:06.459Z,10.97
2018-01-06T14:53:34.749Z,10.80
2018-01-06T14:56:03.053Z,11.33
2018-01-06T14:58:31.520Z,12.17
2018-01-06T15:01:01.762Z,11.40
2018-01-06T15:03:30.147Z,11.03
2018-01-06T15:05:58.444Z,12.37
2018-01-06T15:08:26.815Z,12.33
2018-01-06T15:10:55.089Z,12.50
2018-01-06T15:13:23.379Z,11.27
2018-01-06T15:15:51.665Z,10.33
2018-01-06T15:18:19.921Z,9.93
2018-01-06T15:20:48.263Z,10.33
2018-01-06T15:23:17.416Z,9.30
2018-01-06T15:25:45.847Z,10.10
2018-01-06T15:28:14.235Z,10.27
2018-01-06T15:30:42.877Z,11.50
2018-01-06T15:33:11.935Z,12.80
2018-01-06T15:35:40.203Z,13.10
2018-01-06T15:38:08.470Z,12.90
2018-01-06T15:40:37.746Z,13.50
2018-01-06T15:43:06.044Z,16.00
2018-01-06T15:45:36.457Z,15.10
2018-01-06T15:48:05.145Z,14.60
2018-01-06T15:50:34.050Z,13.93
2018-01-06T15:53:03.356Z,13.60
2018-01-06T15:55:32.036Z,12.23
2018-01-06T15:58:00.728Z,13.10
2018-01-06T16:00:29.212Z,9.50
2018-01-06T16:02:57.695Z,10.77
2018-01-06T16:05:26.486Z,9.43
2018-01-06T16:07:54.940Z,8.80
2018-01-06T16:10:25.011Z,9.10
2018-01-06T16:12:53.484Z,8.13
2018-01-06T16:15:23.540Z,6.80
2018-01-06T16:17:52.314Z,6.30
2018-01-06T16:20:21.708Z,5.23
2018-01-06T16:22:50.288Z,4.20
2018-01-06T16:25:18.889Z,4.07
2018-01-06T16:27:47.472Z,5.30
2018-01-06T16:30:17.501Z,4.13
2018-01-06T16:32:46.482Z,4.37
2018-01-06T16:35:15.275Z,3.63
2018-01-06T16:37:44.685Z,2.47
2018-01-06T16:40:13.172Z,2.90
2018-01-06T16:42:41.655Z,3.80
2018-01-06T16:45:10.873Z,2.90
2018-01-06T16:47:40.261Z,2.80
2018-01-06T16:50:08.850Z,3.10
2018-01-06T16:52:38.256Z,3.73
2018-01-06T16:55:07.566Z,4.03
2018-01-06T16:57:36.033Z,3.60
2018-01-06T17:00:05.560Z,4.53
2018-01-06T17:02:34.764Z,4.30
2018-01-06T17:05:03.428Z,4.07
2018-01-06T17:07:32.041Z,4.93
2018-01-06T17:10:00.539Z,4.33
2018-01-06T17:12:28.842Z,4.50
2018-01-06T17:14:57.873Z,4.90
2018-01-06T17:17:26.132Z,4.00
2018-01-06T17:19:55.138Z,4.07
2018-01-06T17:22:23.394Z,4.77
2018-01-06T17:24:52.402Z,4.50
2018-01-06T17:27:21.413Z,4.43
2018-01-06T17:29:49.660Z,3.93
2018-01-06T17:32:17.914Z,4.50
2018-01-06T17:34:46.155Z,5.20
2018-01-06T17:37:14.450Z,4.20
2018-01-06T17:39:42.705Z,4.07
2018-01-06T17:42:11.710Z,4.03
2018-01-06T17:44:40.040Z,2.90
2018-01-06T17:47:08.270Z,3.80
2018-01-06T17:49:37.304Z,4.33
2018-01-06T17:52:05.538Z,4.10
2018-01-06T17:58:06.288Z,2.97
2018-01-06T18:00:34.502Z,3.87
2018-01-06T18:03:02.770Z,3.30
2018-01-06T18:05:31.779Z,3.70
2018-01-06T18:08:00.787Z,3.70
2018-01-06T18:10:29.036Z,5.00
2018-01-06T18:12:57.282Z,4.30
2018-01-06T18:15:25.539Z,3.47
2018-01-06T18:17:53.889Z,3.50
2018-01-06T18:20:22.107Z,2.83
2018-01-06T18:22:50.343Z,2.70
2018-01-06T18:25:19.417Z,3.53
2018-01-06T18:27:47.671Z,3.83
2018-01-06T18:30:15.931Z,3.47
2018-01-06T18:32:44.178Z,3.70
2018-01-06T18:35:13.202Z,4.43
2018-01-06T18:37:41.505Z,5.03
2018-01-06T18:40:09.765Z,3.03
2018-01-06T18:42:38.065Z,3.00
2018-01-06T18:45:06.360Z,3.43
2018-01-06T18:47:34.589Z,2.90
2018-01-06T18:50:03.611Z,2.70
2018-01-06T18:52:31.851Z,3.60
2018-01-06T18:55:00.111Z,3.40
2018-01-06T18:57:28.380Z,3.20
2018-01-06T18:59:57.415Z,4.53
2018-01-06T19:02:25.641Z,3.47
2018-01-06T19:04:54.653Z,4.20
2018-01-06T19:07:22.912Z,3.63
2018-01-06T19:09:51.154Z,3.60
2018-01-06T19:12:19.382Z,3.33
2018-01-06T19:14:47.633Z,3.60
2018-01-06T19:17:15.892Z,3.10
2018-01-06T19:19:44.263Z,3.97
2018-01-06T19:22:12.510Z,3.80
2018-01-06T19:24:40.750Z,3.40
2018-01-06T19:27:08.997Z,3.60
2018-01-06T19:29:37.238Z,3.97
2018-01-06T19:32:05.481Z,3.90
2018-01-06T19:34:34.471Z,3.47
2018-01-06T19:37:04.231Z,3.73
2018-01-06T19:39:32.480Z,4.50
2018-01-06T19:42:00.746Z,3.97
2018-01-06T19:44:28.974Z,3.50
2018-01-06T19:46:57.236Z,3.90
2018-01-06T19:49:27.616Z,3.37
2018-01-06T19:51:58.047Z,3.67
2018-01-06T19:54:27.045Z,4.30
2018-01-06T19:56:56.075Z,3.57
2018-01-06T19:59:24.301Z,3.30
2018-01-06T20:01:53.329Z,3.30
2018-01-06T20:04:21.561Z,4.00
2018-01-06T20:06:57.241Z,3.90
2018-01-06T20:09:25.489Z,3.70
2018-01-06T20:11:53.780Z,4.60
2018-01-06T20:14:22.001Z,4.80
2018-01-06T20:16:50.235Z,3.87
2018-01-06T20:19:25.765Z,3.20
2018-01-06T20:21:54.004Z,3.87
2018-01-06T20:24:22.232Z,3.47
2018-01-06T20:26:50.541Z,2.73
2018-01-06T20:29:18.785Z,2.87
2018-01-06T20:31:47.826Z,3.10
2018-01-06T20:34:16.091Z,2.97
2018-01-06T20:36:44.354Z,3.03
2018-01-06T20:39:12.590Z,2.80
2018-01-06T20:41:40.860Z,2.57
2018-01-06T20:44:09.119Z,2.60
2018-01-06T20:46:37.386Z,2.80
2018-01-06T20:49:05.692Z,2.07
2018-01-06T20:54:39.906Z,2.47
2018-01-06T20:57:08.138Z,2.60
2018-01-06T20:59:36.926Z,2.57
2018-01-06T21:02:05.204Z,3.17
2018-01-06T21:04:33.456Z,4.43
2018-01-06T21:07:02.472Z,3.03
2018-01-06T21:09:30.712Z,2.50
2018-01-06T21:11:59.776Z,2.63
2018-01-06T21:14:28.030Z,2.33
2018-01-06T21:16:56.266Z,2.27
2018-01-06T21:19:24.543Z,2.40
2018-01-06T21:21:52.763Z,2.83
2018-01-06T21:24:21.022Z,2.40
2018-01-06T21:26:50.004Z,2.33
2018-01-06T21:29:19.033Z,2.43
2018-01-06T21:31:47.270Z,2.10
2018-01-06T21:34:15.521Z,2.10
2018-01-06T21:36:43.757Z,2.73
2018-01-06T21:39:12.000Z,2.07
2018-01-06T21:41:41.008Z,2.13
2018-01-06T21:44:09.275Z,2.30
2018-01-06T21:46:38.270Z,2.10
2018-01-06T21:49:07.273Z,1.57
2018-01-06T21:51:35.510Z,2.00
2018-01-06T21:54:03.784Z,2.30
2018-01-06T21:56:32.017Z,2.07
2018-01-06T21:59:00.268Z,2.50
2018-01-06T22:01:28.502Z,2.20
2018-01-06T22:03:56.729Z,2.60
2018-01-06T22:06:24.992Z,2.53
2018-01-06T22:08:53.990Z,2.43
2018-01-06T22:11:22.303Z,2.40
2018-01-06T22:13:50.553Z,3.17
2018-01-06T22:16:18.847Z,2.37
2018-01-06T22:18:47.073Z,2.53
2018-01-06T22:21:15.418Z,2.10
2018-01-06T22:23:43.643Z,2.10
2018-01-06T22:26:12.648Z,2.10
2018-01-06T22:28:40.877Z,2.10
2018-01-06T22:31:09.136Z,2.83
2018-01-06T22:33:37.385Z,1.77
2018-01-06T22:36:05.621Z,2.30
2018-01-06T22:38:33.852Z,2.13
2018-01-06T22:41:02.105Z,2.83
2018-01-06T22:43:30.360Z,1.90
2018-01-06T22:45:59.363Z,1.50
2018-01-06T22:48:27.610Z,1.50
2018-01-06T22:50:56.732Z,2.07
2018-01-06T22:53:25.738Z,1.13
2018-01-06T22:55:53.987Z,1.23
2018-01-06T22:58:22.221Z,1.20
2018-01-06T23:00:50.458Z,1.50
2018-01-06T23:03:20.144Z,1.27
2018-01-06T23:05:48.378Z,1.30
2018-01-06T23:08:16.628Z,1.00
2018-01-06T23:10:44.855Z,1.40
2018-01-06T23:13:13.156Z,1.20
2018-01-06T23:15:41.357Z,1.47
2018-01-06T23:18:09.593Z,1.20
2018-01-06T23:20:37.821Z,1.70
2018-01-06T23:23:06.053Z,1.20
2018-01-06T23:25:34.282Z,1.10
2018-01-06T23:28:02.529Z,1.33
2018-01-06T23:30:30.770Z,1.00
2018-01-06T23:32:59.002Z,1.10
2018-01-06T23:35:27.233Z,1.13
2018-01-06T23:37:56.242Z,1.20
2018-01-06T23:40:25.236Z,1.00
2018-01-06T23:42:54.243Z,1.23
2018-01-06T23:45:22.479Z,2.17
2018-01-06T23:47:50.754Z,0.80
2018-01-06T23:50:18.965Z,1.20
2018-01-06T23:52:48.112Z,1.80
2018-01-06T23:55:16.337Z,1.00
2018-01-06T23:57:44.593Z,2.03
